Time;durP1;ratioP1;P1;durP2;ratioP2;P2;SDS_P1;SDS_P2;PMS_P1;PMS_P2;Temp;Humidity;BMP_temperature;BMP_pressure;BME280_temperature;BME280_humidity;BME280_pressure;Samples;Min_cycle;Max_cycle;Signal;HPM_P1;HPM_P2
2023/04/03 00:01:14;;;;;;;5.88;4.18;;;5.30;99.90;;;;;;4930801;29;20027;-71
2023/04/03 00:03:41;;;;;;;5.20;3.92;;;5.30;99.90;;;;;;4930022;29;20523;-71
2023/04/03 00:06:08;;;;;;;6.53;4.40;;;5.30;99.90;;;;;;4926534;29;20078;-71
2023/04/03 00:08:35;;;;;;;5.18;4.07;;;5.20;99.90;;;;;;4930800;29;20095;-72
2023/04/03 00:11:01;;;;;;;6.40;4.25;;;5.20;99.90;;;;;;4934220;29;20404;-71
2023/04/03 00:13:27;;;;;;;6.93;4.80;;;5.10;99.90;;;;;;4930587;29;20445;-71
2023/04/03 00:15:53;;;;;;;9.07;6.40;;;5.10;99.90;;;;;;4935759;29;20024;-72
2023/04/03 00:18:18;;;;;;;10.55;5.93;;;5.10;99.90;;;;;;4925306;29;20031;-70
2023/04/03 00:20:44;;;;;;;6.63;5.22;;;5.00;99.90;;;;;;4931822;29;20028;-71
2023/04/03 00:23:10;;;;;;;7.43;6.15;;;5.00;99.90;;;;;;4931277;28;20023;-71
2023/04/03 00:25:36;;;;;;;7.13;6.18;;;5.00;99.90;;;;;;4930730;29;20409;-71
2023/04/03 00:28:02;;;;;;;10.13;5.75;;;5.00;99.90;;;;;;4933210;29;20502;-72
2023/04/03 00:30:28;;;;;;;8.75;5.20;;;5.00;99.90;;;;;;4930252;29;20477;-71
2023/04/03 00:32:54;;;;;;;8.70;5.35;;;5.00;99.90;;;;;;4933746;29;20028;-71
2023/04/03 00:35:21;;;;;;;6.80;5.53;;;5.00;99.90;;;;;;4947444;28;20031;-71
2023/04/03 00:37:47;;;;;;;6.05;4.85;;;5.00;99.90;;;;;;4931015;29;20046;-71
2023/04/03 00:40:14;;;;;;;9.98;5.65;;;5.00;99.90;;;;;;4930260;29;20027;-71
2023/04/03 00:42:42;;;;;;;5.82;4.97;;;5.00;99.90;;;;;;4929389;29;20028;-71
2023/04/03 00:45:10;;;;;;;7.88;5.90;;;5.00;99.90;;;;;;4927534;29;20051;-71
2023/04/03 00:47:38;;;;;;;8.95;6.03;;;5.00;99.90;;;;;;4930091;29;20032;-71
2023/04/03 00:50:04;;;;;;;10.18;6.85;;;5.00;99.90;;;;;;4932402;29;20027;-70
2023/04/03 00:52:31;;;;;;;8.90;6.60;;;4.90;99.90;;;;;;4929760;29;20032;-71
2023/04/03 00:55:01;;;;;;;11.57;8.35;;;5.00;99.90;;;;;;4935450;29;20110;-70
2023/04/03 00:57:28;;;;;;;13.05;8.82;;;4.90;99.90;;;;;;4926849;29;20030;-72
2023/04/03 01:00:01;;;;;;;13.50;9.27;;;4.90;99.90;;;;;;4937023;29;20023;-71
2023/04/03 01:02:27;;;;;;;11.45;8.02;;;4.90;99.90;;;;;;4929440;28;20019;-72
2023/04/03 01:04:52;;;;;;;12.75;7.07;;;4.80;99.90;;;;;;4923663;29;20051;-72
2023/04/03 01:07:28;;;;;;;13.60;7.43;;;4.90;99.90;;;;;;4927191;29;20384;-71
2023/04/03 01:09:59;;;;;;;9.27;7.03;;;4.90;99.90;;;;;;4933704;29;20071;-71
2023/04/03 01:12:31;;;;;;;10.90;7.50;;;4.90;99.90;;;;;;4929240;29;20102;-71
2023/04/03 01:15:00;;;;;;;10.65;7.28;;;4.90;99.90;;;;;;4927883;29;20035;-72
2023/04/03 01:17:27;;;;;;;9.43;6.72;;;4.90;99.90;;;;;;4931300;29;20541;-71
2023/04/03 01:20:11;;;;;;;9.90;6.30;;;4.90;99.90;;;;;;4931070;29;20020;-71
2023/04/03 01:23:09;;;;;;;11.50;7.38;;;4.80;99.90;;;;;;4931577;29;20031;-71
2023/04/03 01:25:41;;;;;;;9.77;7.28;;;4.80;99.90;;;;;;4933169;29;20040;-72
2023/04/03 01:28:10;;;;;;;10.73;7.68;;;4.80;99.90;;;;;;4928401;29;20024;-71
2023/04/03 01:31:08;;;;;;;10.00;7.80;;;4.70;99.90;;;;;;4924281;29;20020;-70
2023/04/03 01:33:34;;;;;;;12.75;8.27;;;4.70;99.90;;;;;;4927393;29;20095;-71
2023/04/03 01:36:00;;;;;;;14.77;8.70;;;4.80;99.90;;;;;;4939353;29;20076;-70
2023/04/03 01:38:26;;;;;;;11.60;8.23;;;4.70;99.90;;;;;;4931191;29;20036;-71
2023/04/03 01:40:52;;;;;;;10.25;8.05;;;4.60;99.90;;;;;;4927959;29;20028;-70
2023/04/03 01:43:17;;;;;;;14.35;8.88;;;4.60;99.90;;;;;;4933966;29;20106;-71
2023/04/03 01:45:43;;;;;;;8.80;6.03;;;4.50;99.90;;;;;;4928024;29;20383;-71
2023/04/03 01:48:08;;;;;;;12.77;8.25;;;4.50;99.90;;;;;;4931719;29;20048;-71
2023/04/03 01:50:34;;;;;;;9.80;7.50;;;4.50;99.90;;;;;;4931806;29;20580;-72
2023/04/03 01:53:00;;;;;;;13.45;7.95;;;4.50;99.90;;;;;;4931510;29;20167;-71
2023/04/03 01:55:25;;;;;;;12.05;8.45;;;4.50;99.90;;;;;;4926360;29;20522;-71
2023/04/03 01:57:51;;;;;;;12.10;8.63;;;4.50;99.90;;;;;;4929135;29;20024;-71
2023/04/03 02:00:17;;;;;;;10.70;8.70;;;4.50;99.90;;;;;;4922792;29;20032;-71
2023/04/03 02:02:42;;;;;;;16.30;9.18;;;4.50;99.90;;;;;;4935414;29;20469;-72
2023/04/03 02:05:08;;;;;;;16.45;9.10;;;4.50;99.90;;;;;;4936719;29;20032;-72
2023/04/03 02:07:34;;;;;;;16.02;9.02;;;4.40;99.90;;;;;;4933227;29;20023;-71
2023/04/03 02:10:00;;;;;;;12.30;8.88;;;4.40;99.90;;;;;;4933757;29;20031;-71
2023/04/03 02:12:25;;;;;;;13.82;9.63;;;4.40;99.90;;;;;;4930264;29;20027;-72
2023/04/03 02:14:51;;;;;;;10.00;8.38;;;4.30;99.90;;;;;;4929644;29;20111;-71
2023/04/03 02:17:17;;;;;;;13.00;9.02;;;4.40;99.90;;;;;;4936476;29;20032;-71
2023/04/03 02:19:43;;;;;;;17.27;8.13;;;4.30;99.90;;;;;;4929465;29;20034;-72
2023/04/03 02:22:09;;;;;;;11.40;8.27;;;4.30;99.90;;;;;;4934046;28;20023;-71
2023/04/03 02:24:35;;;;;;;13.18;9.48;;;4.30;99.90;;;;;;4932946;29;20039;-71
2023/04/03 02:27:00;;;;;;;14.88;9.15;;;4.30;99.90;;;;;;4935432;29;20038;-71
2023/04/03 02:29:26;;;;;;;13.52;9.27;;;4.30;99.90;;;;;;4932727;29;20477;-72
2023/04/03 02:31:52;;;;;;;11.95;9.55;;;4.30;99.90;;;;;;4932488;29;20027;-72
2023/04/03 02:34:17;;;;;;;12.15;9.10;;;4.30;99.90;;;;;;4933078;29;20036;-73
2023/04/03 02:36:44;;;;;;;11.70;8.85;;;4.30;99.90;;;;;;4924223;29;20039;-71
2023/04/03 02:39:09;;;;;;;12.88;8.55;;;4.30;99.90;;;;;;4931884;29;20043;-71
2023/04/03 02:41:35;;;;;;;12.15;8.63;;;4.20;99.90;;;;;;4927476;29;20028;-71
2023/04/03 02:44:02;;;;;;;13.60;8.63;;;4.20;99.90;;;;;;4925176;29;20042;-71
2023/04/03 02:46:28;;;;;;;10.90;7.55;;;4.20;99.90;;;;;;4929782;29;20067;-71
2023/04/03 02:48:53;;;;;;;11.45;8.80;;;4.20;99.90;;;;;;4931476;29;20036;-71
2023/04/03 02:51:19;;;;;;;10.82;8.88;;;4.20;99.90;;;;;;4927281;29;20417;-71
2023/04/03 02:53:45;;;;;;;12.60;8.32;;;4.10;99.90;;;;;;4930458;29;20359;-71
2023/04/03 02:56:10;;;;;;;13.38;8.25;;;4.10;99.90;;;;;;4924039;29;20051;-71
2023/04/03 02:58:36;;;;;;;13.02;7.90;;;4.10;99.90;;;;;;4933091;29;20496;-72
2023/04/03 03:01:02;;;;;;;18.33;8.95;;;4.10;99.90;;;;;;4922926;29;20031;-71
2023/04/03 03:03:28;;;;;;;13.02;9.57;;;4.10;99.90;;;;;;4931168;29;20031;-72
2023/04/03 03:06:06;;;;;;;12.63;8.80;;;4.10;99.90;;;;;;4926993;29;20449;-71
2023/04/03 03:08:32;;;;;;;12.18;9.20;;;4.10;99.90;;;;;;4925132;29;20114;-71
2023/04/03 03:10:58;;;;;;;15.48;9.95;;;4.00;99.90;;;;;;4934265;29;20063;-70
2023/04/03 03:13:24;;;;;;;13.85;10.27;;;4.10;99.90;;;;;;4926657;29;20028;-71
2023/04/03 03:15:50;;;;;;;14.50;9.70;;;4.00;99.90;;;;;;4931702;29;20028;-71
2023/04/03 03:18:15;;;;;;;15.85;10.18;;;4.00;99.90;;;;;;4923910;29;20031;-71
2023/04/03 03:20:41;;;;;;;14.27;9.77;;;4.00;99.90;;;;;;4931076;29;20489;-71
2023/04/03 03:23:06;;;;;;;14.75;10.82;;;4.00;99.90;;;;;;4927251;29;20426;-71
2023/04/03 03:25:32;;;;;;;14.65;9.68;;;4.00;99.90;;;;;;4930174;29;20040;-71
2023/04/03 03:27:58;;;;;;;13.75;10.00;;;4.00;99.90;;;;;;4925883;29;20107;-70
2023/04/03 03:30:23;;;;;;;12.18;9.43;;;4.00;99.90;;;;;;4930856;29;20032;-71
2023/04/03 03:32:49;;;;;;;17.55;9.35;;;3.90;99.90;;;;;;4921481;29;20032;-71
2023/04/03 03:35:15;;;;;;;17.25;9.63;;;4.00;99.90;;;;;;4929901;29;20401;-71
2023/04/03 03:37:40;;;;;;;16.42;10.52;;;4.00;99.90;;;;;;4924858;28;20121;-71
2023/04/03 03:40:07;;;;;;;15.93;10.18;;;3.90;99.90;;;;;;4928225;29;20054;-71
2023/04/03 03:42:32;;;;;;;14.35;9.63;;;4.00;99.90;;;;;;4925800;29;20024;-71
2023/04/03 03:44:58;;;;;;;13.30;9.85;;;4.00;99.90;;;;;;4924675;29;20032;-71
2023/04/03 03:47:24;;;;;;;14.02;10.02;;;4.00;99.90;;;;;;4928322;29;20107;-71
2023/04/03 03:49:49;;;;;;;16.55;10.73;;;4.00;99.90;;;;;;4920246;29;20103;-71
2023/04/03 03:52:15;;;;;;;14.20;9.15;;;3.90;99.90;;;;;;4925266;29;20035;-71
2023/04/03 03:54:41;;;;;;;13.93;10.02;;;3.90;99.90;;;;;;4933060;29;20028;-71
2023/04/03 03:57:06;;;;;;;16.63;10.60;;;3.80;99.90;;;;;;4925143;29;20469;-71
2023/04/03 03:59:32;;;;;;;14.63;10.70;;;3.90;99.90;;;;;;4926887;29;20028;-71
2023/04/03 04:01:57;;;;;;;17.17;10.88;;;3.90;99.90;;;;;;4926685;29;20504;-71
2023/04/03 04:04:23;;;;;;;15.25;10.55;;;3.90;99.90;;;;;;4926364;29;20118;-71
2023/04/03 04:06:48;;;;;;;13.57;10.27;;;3.90;99.90;;;;;;4927633;29;20028;-71
2023/04/03 04:09:14;;;;;;;16.20;10.70;;;3.80;99.90;;;;;;4922850;29;20032;-71
2023/04/03 04:11:40;;;;;;;15.77;10.52;;;3.80;99.90;;;;;;4928373;29;20034;-71
2023/04/03 04:14:06;;;;;;;14.40;9.85;;;3.80;99.90;;;;;;4923479;29;20115;-71
2023/04/03 04:16:32;;;;;;;14.60;10.50;;;3.80;99.90;;;;;;4930333;29;20042;-71
2023/04/03 04:18:58;;;;;;;13.63;9.48;;;3.80;99.90;;;;;;4923245;29;20396;-71
2023/04/03 04:21:24;;;;;;;13.43;9.85;;;3.70;99.90;;;;;;4926470;29;20393;-72
2023/04/03 04:23:49;;;;;;;26.58;10.82;;;3.80;99.90;;;;;;4924707;29;20111;-71
2023/04/03 04:26:15;;;;;;;14.60;9.98;;;3.80;99.90;;;;;;4930908;29;20047;-72
2023/04/03 04:28:41;;;;;;;15.32;10.15;;;3.70;99.90;;;;;;4930613;29;20040;-71
2023/04/03 04:31:06;;;;;;;13.50;9.93;;;3.80;99.90;;;;;;4924371;29;20040;-71
2023/04/03 04:33:32;;;;;;;11.23;8.70;;;3.70;99.90;;;;;;4926361;29;20016;-72
2023/04/03 04:35:57;;;;;;;12.38;8.57;;;3.70;99.90;;;;;;4923955;29;20098;-72
2023/04/03 04:38:23;;;;;;;12.88;9.30;;;3.70;99.90;;;;;;4924589;29;20024;-72
2023/04/03 04:40:49;;;;;;;17.52;8.93;;;3.70;99.90;;;;;;4926892;29;20046;-72
2023/04/03 04:43:15;;;;;;;12.45;8.57;;;3.60;99.90;;;;;;4930368;29;20047;-71
2023/04/03 04:45:41;;;;;;;15.77;8.90;;;3.60;99.90;;;;;;4927081;29;20830;-72
2023/04/03 04:48:07;;;;;;;16.75;10.82;;;3.60;99.90;;;;;;4923039;29;20075;-71
2023/04/03 04:50:33;;;;;;;19.42;10.27;;;3.70;99.90;;;;;;4924826;29;20043;-71
2023/04/03 04:52:58;;;;;;;12.82;9.18;;;3.60;99.90;;;;;;4931201;29;20024;-71
2023/04/03 04:55:24;;;;;;;15.57;9.95;;;3.60;99.90;;;;;;4929723;29;20478;-71
2023/04/03 04:57:50;;;;;;;15.27;9.63;;;3.50;99.90;;;;;;4928544;29;20389;-71
2023/04/03 05:00:16;;;;;;;14.32;9.80;;;3.50;99.90;;;;;;4924628;29;20040;-71
2023/04/03 05:02:41;;;;;;;18.83;10.38;;;3.50;99.90;;;;;;4924410;29;20485;-72
2023/04/03 05:05:08;;;;;;;13.75;9.13;;;3.50;99.90;;;;;;4927919;29;20097;-72
2023/04/03 05:07:35;;;;;;;13.02;8.75;;;3.50;99.90;;;;;;4921504;29;20035;-72
2023/04/03 05:10:03;;;;;;;13.20;8.75;;;3.50;99.90;;;;;;4925979;29;20110;-72
2023/04/03 05:12:29;;;;;;;14.43;9.15;;;3.50;99.90;;;;;;4934818;29;20027;-72
2023/04/03 05:14:54;;;;;;;13.45;9.77;;;3.50;99.90;;;;;;4923689;29;20033;-72
2023/04/03 05:17:20;;;;;;;17.35;9.48;;;3.40;99.90;;;;;;4928634;29;20026;-71
2023/04/03 05:19:46;;;;;;;11.15;9.25;;;3.40;99.90;;;;;;4926092;29;20024;-72
2023/04/03 05:22:11;;;;;;;14.77;9.95;;;3.50;99.90;;;;;;4925115;29;20465;-72
2023/04/03 05:24:37;;;;;;;14.80;9.45;;;3.50;99.90;;;;;;4927061;29;20038;-72
2023/04/03 05:27:04;;;;;;;13.93;9.05;;;3.40;99.90;;;;;;4925128;29;20116;-71
2023/04/03 05:29:29;;;;;;;16.00;8.68;;;3.40;99.90;;;;;;4928047;29;20488;-71
2023/04/03 05:31:55;;;;;;;14.82;8.93;;;3.50;99.90;;;;;;4926374;29;20028;-71
2023/04/03 05:34:21;;;;;;;15.45;8.82;;;3.40;99.90;;;;;;4927145;29;20457;-72
2023/04/03 05:36:47;;;;;;;14.38;8.52;;;3.40;99.90;;;;;;4924174;29;20036;-72
2023/04/03 05:39:12;;;;;;;14.07;8.90;;;3.40;99.90;;;;;;4928516;29;20064;-70
2023/04/03 05:41:38;;;;;;;16.63;8.85;;;3.40;99.90;;;;;;4928932;29;20083;-70
2023/04/03 05:44:03;;;;;;;13.00;8.38;;;3.40;99.90;;;;;;4928905;29;20381;-70
2023/04/03 05:46:29;;;;;;;14.95;7.78;;;3.40;99.90;;;;;;4933813;29;20469;-71
2023/04/03 05:48:55;;;;;;;12.13;7.47;;;3.50;99.90;;;;;;4927249;29;20366;-70
2023/04/03 05:51:28;;;;;;;17.95;8.02;;;3.40;99.90;;;;;;4925886;29;20389;-71
2023/04/03 05:54:17;;;;;;;11.45;7.53;;;3.50;99.90;;;;;;4933045;29;21454;-70
2023/04/03 05:56:43;;;;;;;11.55;6.28;;;3.40;99.90;;;;;;4925152;29;20028;-70
2023/04/03 05:59:09;;;;;;;11.40;7.25;;;3.50;99.90;;;;;;4931089;29;20470;-71
2023/04/03 06:01:35;;;;;;;13.27;7.22;;;3.50;99.90;;;;;;4928847;29;20028;-72
2023/04/03 06:04:00;;;;;;;10.05;7.05;;;3.40;99.90;;;;;;4924766;29;20107;-71
2023/04/03 06:06:42;;;;;;;13.38;7.90;;;3.40;99.90;;;;;;4927335;29;20520;-70
2023/04/03 06:09:08;;;;;;;11.27;6.45;;;3.30;99.90;;;;;;4923359;29;20040;-70
2023/04/03 06:11:33;;;;;;;17.15;7.03;;;3.30;99.90;;;;;;4927169;29;20022;-70
2023/04/03 06:14:00;;;;;;;11.73;6.85;;;3.30;99.90;;;;;;4925038;29;20104;-71
2023/04/03 06:16:26;;;;;;;10.68;6.28;;;3.40;99.90;;;;;;4929375;29;20071;-71
2023/04/03 06:18:51;;;;;;;12.32;6.03;;;3.30;99.90;;;;;;4926697;28;20036;-72
2023/04/03 06:21:17;;;;;;;12.27;6.03;;;3.40;99.90;;;;;;4937051;29;20028;-73
2023/04/03 06:23:42;;;;;;;6.88;4.35;;;3.40;99.90;;;;;;4930384;29;20031;-72
2023/04/03 06:26:08;;;;;;;9.73;5.70;;;3.40;99.90;;;;;;4928494;29;20048;-72
2023/04/03 06:28:34;;;;;;;14.25;5.82;;;3.50;99.90;;;;;;4929816;29;20350;-71
2023/04/03 06:31:00;;;;;;;7.35;4.63;;;3.50;99.90;;;;;;4928500;29;20027;-72
2023/04/03 06:33:26;;;;;;;11.88;4.90;;;3.50;99.90;;;;;;4924669;29;20022;-71
2023/04/03 06:35:59;;;;;;;12.00;5.03;;;3.60;99.90;;;;;;4924949;29;20241;-72
2023/04/03 06:38:24;;;;;;;10.40;4.78;;;3.70;99.90;;;;;;4932564;28;20028;-71
2023/04/03 06:40:51;;;;;;;9.77;4.93;;;3.80;99.90;;;;;;4926056;29;20103;-71
2023/04/03 06:43:17;;;;;;;11.82;4.68;;;3.80;99.90;;;;;;4932631;29;20059;-71
2023/04/03 06:45:43;;;;;;;10.60;4.65;;;3.90;99.90;;;;;;4924458;29;20131;-71
2023/04/03 06:48:08;;;;;;;15.48;5.05;;;3.90;99.90;;;;;;4928966;29;20469;-72
2023/04/03 06:50:34;;;;;;;8.75;4.55;;;3.80;99.90;;;;;;4924566;29;20416;-71
2023/04/03 06:53:00;;;;;;;11.00;4.55;;;3.90;99.90;;;;;;4932798;29;20084;-70
2023/04/03 06:55:26;;;;;;;8.15;4.10;;;3.90;99.90;;;;;;4930346;29;20091;-71
2023/04/03 06:57:52;;;;;;;8.52;4.57;;;3.90;99.90;;;;;;4923886;29;20032;-71
2023/04/03 07:00:19;;;;;;;10.98;4.57;;;3.80;99.90;;;;;;4925524;29;20111;-71
2023/04/03 07:02:45;;;;;;;7.57;3.90;;;3.90;99.90;;;;;;4934064;29;20027;-71
2023/04/03 07:05:11;;;;;;;8.02;4.55;;;4.10;99.90;;;;;;4930064;29;20114;-71
2023/04/03 07:07:37;;;;;;;8.73;3.40;;;4.10;99.90;;;;;;4923594;29;20020;-71
2023/04/03 07:10:04;;;;;;;6.38;3.40;;;4.20;99.90;;;;;;4930087;29;20090;-71
2023/04/03 07:12:30;;;;;;;13.18;5.07;;;4.20;99.90;;;;;;4924896;29;20468;-71
2023/04/03 07:14:55;;;;;;;12.40;3.95;;;4.20;99.90;;;;;;4933427;29;20032;-69
2023/04/03 07:17:21;;;;;;;12.48;4.47;;;4.20;99.90;;;;;;4926904;29;20497;-70
2023/04/03 07:19:47;;;;;;;11.35;4.15;;;4.30;99.90;;;;;;4927360;29;20079;-70
2023/04/03 07:22:13;;;;;;;10.52;4.60;;;4.40;99.90;;;;;;4927819;29;20047;-70
2023/04/03 07:24:38;;;;;;;8.85;4.75;;;4.40;99.90;;;;;;4925984;29;20115;-70
2023/04/03 07:27:04;;;;;;;15.30;4.43;;;4.40;99.90;;;;;;4929804;29;20095;-69
2023/04/03 07:29:30;;;;;;;11.70;4.80;;;4.60;99.90;;;;;;4933311;28;20016;-70
2023/04/03 07:31:56;;;;;;;10.13;4.22;;;4.60;99.90;;;;;;4926617;29;20488;-70
2023/04/03 07:34:22;;;;;;;13.90;4.60;;;4.60;99.90;;;;;;4928624;29;20024;-69
2023/04/03 07:36:47;;;;;;;10.15;3.65;;;4.70;99.90;;;;;;4925074;29;20382;-69
2023/04/03 07:39:13;;;;;;;9.93;4.00;;;4.70;99.90;;;;;;4934988;29;20035;-69
2023/04/03 07:41:39;;;;;;;10.00;3.42;;;4.80;99.90;;;;;;4932250;29;20032;-70
2023/04/03 07:44:05;;;;;;;7.15;3.63;;;4.90;99.90;;;;;;4924540;29;20623;-69
2023/04/03 07:46:31;;;;;;;7.70;4.03;;;5.00;99.90;;;;;;4926603;29;20100;-70
2023/04/03 07:48:57;;;;;;;11.43;4.13;;;5.10;99.90;;;;;;4925055;29;20425;-69
2023/04/03 07:51:24;;;;;;;13.20;3.35;;;5.20;99.90;;;;;;4924891;29;20039;-70
2023/04/03 07:53:50;;;;;;;14.85;3.65;;;5.30;99.90;;;;;;4925536;29;20035;-69
2023/04/03 07:56:17;;;;;;;9.43;3.17;;;5.30;99.90;;;;;;4930562;29;20397;-69
2023/04/03 07:58:42;;;;;;;8.25;3.58;;;5.40;99.90;;;;;;4921773;29;20040;-70
2023/04/03 08:01:09;;;;;;;11.65;3.50;;;5.60;99.90;;;;;;4928403;29;20035;-70
2023/04/03 08:03:35;;;;;;;10.25;3.10;;;5.70;99.90;;;;;;4925307;29;20473;-69
2023/04/03 08:06:04;;;;;;;8.70;2.92;;;5.90;99.90;;;;;;4923958;29;20095;-69
2023/04/03 08:08:29;;;;;;;11.90;3.78;;;6.20;99.90;;;;;;4924868;29;20019;-71
2023/04/03 08:10:58;;;;;;;9.32;3.22;;;6.40;99.90;;;;;;4926456;29;20039;-69
2023/04/03 08:13:23;;;;;;;11.63;3.20;;;6.50;99.90;;;;;;4927415;29;20042;-70
2023/04/03 08:15:49;;;;;;;6.90;2.85;;;6.60;99.90;;;;;;4926804;29;20036;-69
2023/04/03 08:18:15;;;;;;;6.75;2.78;;;6.70;99.90;;;;;;4929224;29;20016;-70
2023/04/03 08:20:42;;;;;;;10.93;2.80;;;6.70;99.90;;;;;;4932555;28;20103;-69
2023/04/03 08:23:08;;;;;;;8.65;2.85;;;6.80;99.90;;;;;;4939947;28;20020;-70
2023/04/03 08:25:38;;;;;;;6.95;2.60;;;7.00;99.90;;;;;;4925155;29;20059;-70
2023/04/03 08:28:04;;;;;;;5.50;2.65;;;7.10;99.90;;;;;;4929182;29;20099;-68
2023/04/03 08:30:30;;;;;;;9.52;2.85;;;7.10;99.90;;;;;;4929032;29;20529;-71
2023/04/03 08:32:55;;;;;;;10.10;2.88;;;7.10;99.90;;;;;;4927705;28;20020;-70
2023/04/03 08:35:21;;;;;;;6.50;2.60;;;7.20;99.90;;;;;;4926756;29;20042;-69
2023/04/03 08:37:47;;;;;;;9.63;2.60;;;7.30;99.90;;;;;;4930147;29;20064;-69
2023/04/03 08:40:15;;;;;;;6.28;2.30;;;7.40;99.90;;;;;;4926124;29;20039;-71
2023/04/03 08:42:57;;;;;;;8.40;2.83;;;7.60;99.90;;;;;;4929249;29;20541;-72
2023/04/03 08:45:40;;;;;;;7.15;2.15;;;7.60;99.90;;;;;;4925068;29;20044;-71
2023/04/03 08:48:18;;;;;;;6.95;2.47;;;7.50;99.90;;;;;;4921469;29;20066;-68
2023/04/03 08:50:47;;;;;;;9.80;2.10;;;7.70;99.90;;;;;;4928383;29;20052;-72
2023/04/03 08:53:19;;;;;;;7.05;2.25;;;7.70;99.90;;;;;;4922076;29;20032;-71
2023/04/03 08:55:47;;;;;;;5.90;2.20;;;7.60;99.90;;;;;;4924562;29;20118;-71
2023/04/03 08:58:20;;;;;;;5.55;2.10;;;7.80;99.90;;;;;;4927305;29;20107;-70
2023/04/03 09:00:58;;;;;;;4.25;2.17;;;7.80;99.90;;;;;;4925062;29;20055;-71
2023/04/03 09:03:25;;;;;;;5.88;2.40;;;7.90;99.90;;;;;;4924668;29;20029;-71
2023/04/03 09:06:08;;;;;;;13.18;2.85;;;8.00;99.90;;;;;;4926702;29;20396;-71
2023/04/03 09:08:53;;;;;;;4.45;2.25;;;8.10;99.90;;;;;;4923874;29;20024;-71
2023/04/03 09:11:27;;;;;;;4.07;1.95;;;8.30;99.90;;;;;;4926320;29;20032;-71
2023/04/03 09:14:07;;;;;;;5.53;1.90;;;8.20;99.90;;;;;;4925939;29;20118;-70
2023/04/03 09:17:04;;;;;;;5.03;1.65;;;8.40;99.90;;;;;;4923214;29;20023;-71
2023/04/03 09:20:03;;;;;;;3.35;2.17;;;8.50;99.90;;;;;;4926258;29;20511;-71
2023/04/03 09:22:33;;;;;;;6.90;2.70;;;8.80;99.90;;;;;;4925676;29;20046;-71
2023/04/03 09:25:12;;;;;;;5.07;1.90;;;8.90;99.90;;;;;;4925538;29;20366;-73
2023/04/03 09:27:39;;;;;;;3.33;1.90;;;9.00;99.90;;;;;;4925870;29;20557;-70
2023/04/03 09:30:07;;;;;;;4.65;1.83;;;8.90;99.90;;;;;;4923407;29;20024;-71
2023/04/03 09:32:35;;;;;;;3.83;1.80;;;9.00;99.90;;;;;;4932583;29;20035;-72
2023/04/03 09:35:08;;;;;;;4.15;1.80;;;9.00;99.90;;;;;;4921793;28;20023;-71
2023/04/03 09:37:41;;;;;;;3.65;1.40;;;9.10;99.90;;;;;;4923720;29;20122;-72
2023/04/03 09:40:30;;;;;;;6.53;1.95;;;9.30;99.90;;;;;;4929884;29;20385;-71
2023/04/03 09:42:58;;;;;;;4.07;1.67;;;9.50;99.90;;;;;;4924466;29;20119;-71
2023/04/03 09:45:33;;;;;;;3.30;1.08;;;9.60;99.90;;;;;;4930414;29;20050;-68
2023/04/03 09:48:14;;;;;;;2.95;1.25;;;9.60;99.90;;;;;;4925145;29;20433;-70
2023/04/03 09:50:58;;;;;;;4.20;1.55;;;9.60;99.90;;;;;;4928117;29;20063;-69
2023/04/03 09:53:35;;;;;;;3.38;1.42;;;9.60;99.90;;;;;;4926392;29;20560;-69
2023/04/03 09:56:03;;;;;;;1.67;0.90;;;9.80;99.90;;;;;;4932694;29;20027;-68
2023/04/03 09:58:37;;;;;;;7.00;1.10;;;9.80;99.90;;;;;;4930858;29;20099;-69
2023/04/03 10:01:04;;;;;;;3.17;1.25;;;9.80;99.90;;;;;;4932407;29;20495;-70
2023/04/03 10:03:36;;;;;;;4.18;1.50;;;9.60;99.90;;;;;;4941356;28;20110;-70
2023/04/03 10:06:03;;;;;;;3.40;1.35;;;9.80;99.90;;;;;;4931465;29;20072;-74
2023/04/03 10:08:34;;;;;;;2.55;0.93;;;10.10;99.90;;;;;;4926723;29;20449;-74
2023/04/03 10:11:18;;;;;;;2.03;1.15;;;10.10;99.90;;;;;;4928658;29;20377;-73
2023/04/03 10:14:02;;;;;;;2.72;1.30;;;10.40;99.90;;;;;;4934811;29;20034;-73
2023/04/03 10:16:57;;;;;;;4.30;1.10;;;10.20;99.90;;;;;;4924055;29;20080;-71
2023/04/03 10:19:42;;;;;;;3.55;1.30;;;10.40;99.90;;;;;;4930004;29;20016;-74
2023/04/03 10:22:36;;;;;;;2.53;1.10;;;10.30;99.90;;;;;;4927062;29;20031;-73
2023/04/03 10:25:22;;;;;;;2.35;1.10;;;10.20;99.70;;;;;;4929946;29;20029;-73
2023/04/03 10:27:55;;;;;;;2.65;0.90;;;9.90;95.60;;;;;;4935783;29;20063;-73
2023/04/03 10:30:29;;;;;;;1.98;1.10;;;10.20;98.60;;;;;;4926048;29;20032;-73
2023/04/03 10:33:01;;;;;;;2.15;1.05;;;10.40;98.80;;;;;;4927045;29;20032;-70
2023/04/03 10:35:37;;;;;;;3.67;1.08;;;10.60;99.90;;;;;;4928878;29;20519;-71
2023/04/03 10:38:21;;;;;;;2.38;1.05;;;10.60;99.90;;;;;;4932213;29;20040;-74
2023/04/03 10:41:37;;;;;;;2.58;0.90;;;10.90;99.90;;;;;;4935352;29;20027;-71
2023/04/03 10:44:30;;;;;;;2.83;0.90;;;10.90;98.80;;;;;;4929972;29;20497;-73
2023/04/03 10:47:05;;;;;;;5.25;1.25;;;10.70;98.80;;;;;;4929570;29;20044;-71
2023/04/03 10:49:42;;;;;;;2.38;1.38;;;10.80;98.80;;;;;;4929829;29;20053;-71
2023/04/03 10:52:26;;;;;;;2.90;1.20;;;11.00;98.20;;;;;;4928074;29;20108;-71
2023/04/03 10:54:58;;;;;;;5.72;1.58;;;10.70;99.00;;;;;;4925617;29;20099;-72
2023/04/03 10:57:25;;;;;;;3.42;1.58;;;10.80;95.80;;;;;;4929729;29;20036;-72
2023/04/03 10:59:59;;;;;;;2.95;1.38;;;11.10;99.90;;;;;;4920911;29;20385;-73
2023/04/03 11:02:35;;;;;;;3.58;1.48;;;10.80;95.10;;;;;;4925451;29;20440;-72
2023/04/03 11:05:09;;;;;;;5.28;1.50;;;10.80;95.20;;;;;;4923296;29;20063;-72
2023/04/03 11:07:40;;;;;;;4.60;1.60;;;11.00;98.00;;;;;;4930915;29;20043;-73
2023/04/03 11:10:19;;;;;;;5.55;1.65;;;11.30;96.30;;;;;;4927167;29;20134;-73
2023/04/03 11:12:59;;;;;;;4.35;1.38;;;11.50;97.10;;;;;;4924080;29;20086;-73
2023/04/03 11:15:27;;;;;;;5.25;1.60;;;11.30;94.60;;;;;;4926799;29;20052;-73
2023/04/03 11:18:06;;;;;;;3.83;1.50;;;11.20;94.80;;;;;;4928600;29;20107;-73
2023/04/03 11:20:34;;;;;;;4.22;1.50;;;11.10;94.60;;;;;;4927536;29;20028;-73
2023/04/03 11:23:06;;;;;;;3.97;1.58;;;11.10;95.50;;;;;;4928925;29;20031;-72
2023/04/03 11:25:36;;;;;;;7.68;2.08;;;11.30;96.90;;;;;;4924069;29;20067;-73
2023/04/03 11:28:05;;;;;;;6.60;2.22;;;11.50;96.10;;;;;;4927561;29;20087;-72
2023/04/03 11:30:46;;;;;;;4.55;1.58;;;11.70;99.20;;;;;;4932956;29;20391;-73
2023/04/03 11:33:34;;;;;;;4.20;1.40;;;11.70;98.00;;;;;;4922896;29;20059;-74
2023/04/03 11:36:18;;;;;;;2.67;1.58;;;11.90;95.40;;;;;;4932814;29;20039;-74
2023/04/03 11:38:46;;;;;;;4.00;1.23;;;12.20;96.90;;;;;;4925747;29;20043;-74
2023/04/03 11:41:13;;;;;;;2.45;1.40;;;12.20;94.50;;;;;;4934540;29;20039;-74
2023/04/03 11:43:57;;;;;;;3.97;1.00;;;12.30;96.70;;;;;;4933789;29;20469;-76
2023/04/03 11:46:52;;;;;;;1.67;1.00;;;12.40;96.20;;;;;;4921797;29;20135;-73
2023/04/03 11:49:56;;;;;;;1.98;1.00;;;12.30;92.70;;;;;;4931681;29;20063;-74
2023/04/03 11:52:39;;;;;;;1.48;0.88;;;12.30;91.20;;;;;;4923700;29;20016;-74
2023/04/03 11:55:23;;;;;;;4.22;1.27;;;12.30;91.00;;;;;;4925775;29;20039;-76
2023/04/03 11:57:57;;;;;;;3.75;1.10;;;12.30;91.90;;;;;;4925635;29;20031;-78
2023/04/03 12:00:51;;;;;;;4.28;1.17;;;12.30;94.00;;;;;;4928962;29;20097;-72
2023/04/03 12:03:41;;;;;;;3.20;1.13;;;12.00;87.70;;;;;;4930344;29;20024;-71
2023/04/03 12:06:09;;;;;;;3.25;1.17;;;12.30;92.00;;;;;;4925892;29;20068;-72
2023/04/03 12:08:41;;;;;;;2.42;0.88;;;12.30;89.10;;;;;;4930729;28;20119;-74
2023/04/03 12:11:13;;;;;;;2.15;1.10;;;12.10;86.40;;;;;;4927209;29;20032;-72
2023/04/03 12:13:38;;;;;;;3.15;1.20;;;12.00;88.70;;;;;;4925922;29;20082;-76
2023/04/03 12:16:23;;;;;;;3.15;1.10;;;12.20;86.90;;;;;;4924305;29;20032;-73
2023/04/03 12:18:48;;;;;;;2.38;1.17;;;12.10;90.50;;;;;;4930251;29;20094;-71
2023/04/03 12:21:18;;;;;;;4.78;1.00;;;12.40;89.60;;;;;;4935577;29;20028;-73
2023/04/03 12:24:05;;;;;;;1.95;1.20;;;12.40;89.90;;;;;;4920620;29;20054;-75
2023/04/03 12:26:51;;;;;;;1.75;1.10;;;12.20;85.10;;;;;;4927924;29;20043;-71
2023/04/03 12:29:33;;;;;;;3.15;1.20;;;12.20;89.80;;;;;;4931011;29;20030;-72
2023/04/03 12:32:29;;;;;;;22.15;2.08;;;12.10;90.20;;;;;;4928943;29;20040;-75
2023/04/03 12:35:21;;;;;;;5.28;1.30;;;12.10;86.90;;;;;;4925776;29;20444;-74
2023/04/03 12:37:53;;;;;;;2.40;1.20;;;12.30;91.70;;;;;;4929153;29;20040;-71
2023/04/03 12:40:31;;;;;;;1.50;0.75;;;12.50;90.30;;;;;;4918252;29;20466;-70
2023/04/03 12:43:20;;;;;;;3.13;1.38;;;12.40;82.50;;;;;;4925170;29;20023;-71
2023/04/03 12:46:09;;;;;;;2.03;0.90;;;12.10;85.50;;;;;;4922110;29;20512;-73
2023/04/03 12:48:58;;;;;;;1.45;0.90;;;12.00;84.10;;;;;;4929982;29;20032;-74
2023/04/03 12:51:46;;;;;;;2.65;0.95;;;12.10;85.10;;;;;;4922316;28;20085;-76
2023/04/03 12:54:27;;;;;;;3.13;1.20;;;12.60;90.40;;;;;;4925501;29;20404;-77
2023/04/03 12:57:13;;;;;;;2.67;1.10;;;12.50;86.10;;;;;;4922103;29;20028;-74
2023/04/03 12:59:40;;;;;;;2.78;1.27;;;12.40;80.20;;;;;;4928928;29;20024;-74
2023/04/03 13:02:31;;;;;;;4.57;1.15;;;12.50;88.40;;;;;;4928769;29;20032;-75
2023/04/03 13:04:59;;;;;;;2.28;0.98;;;12.30;84.00;;;;;;4929574;29;20030;-76